Time;durP1;ratioP1;P1;durP2;ratioP2;P2;SDS_P1;SDS_P2;PMS_P1;PMS_P2;Temp;Humidity;BMP_temperature;BMP_pressure;BME280_temperature;BME280_humidity;BME280_pressure;Samples;Min_cycle;Max_cycle;Signal;HPM_P1;HPM_P2
2023/01/24 00:00:34;;;;;;;22.42;16.88;;;3.90;99.90;;;;;;5073677;28;20473;-69
2023/01/24 00:02:59;;;;;;;24.08;17.52;;;3.90;99.90;;;;;;5073445;28;20477;-69
2023/01/24 00:05:25;;;;;;;22.10;17.13;;;4.00;99.90;;;;;;5073376;28;20098;-69
2023/01/24 00:07:50;;;;;;;21.75;16.58;;;3.90;99.90;;;;;;5056932;28;20051;-69
2023/01/24 00:10:16;;;;;;;22.55;16.63;;;4.00;99.90;;;;;;5073287;28;20052;-69
2023/01/24 00:12:42;;;;;;;22.60;16.25;;;3.90;99.90;;;;;;5073309;28;20040;-70
2023/01/24 00:15:08;;;;;;;24.05;17.88;;;3.90;99.90;;;;;;5073385;28;20037;-70
2023/01/24 00:17:34;;;;;;;21.83;17.10;;;3.90;99.90;;;;;;5073475;28;20037;-70
2023/01/24 00:19:59;;;;;;;26.40;17.05;;;3.90;99.90;;;;;;5073327;28;20500;-70
2023/01/24 00:22:25;;;;;;;21.60;16.40;;;3.90;99.90;;;;;;5073116;28;20561;-70
2023/01/24 00:24:51;;;;;;;24.98;17.35;;;3.90;99.90;;;;;;5073113;28;20033;-70
2023/01/24 00:27:17;;;;;;;23.48;17.25;;;3.90;99.90;;;;;;5072982;28;20123;-70
2023/01/24 00:29:43;;;;;;;24.45;17.92;;;3.90;99.90;;;;;;5073154;28;20033;-70
2023/01/24 00:32:09;;;;;;;24.45;17.67;;;3.90;99.90;;;;;;5073203;28;20547;-70
2023/01/24 00:34:34;;;;;;;25.27;18.58;;;3.90;99.90;;;;;;5073052;28;20439;-70
2023/01/24 00:37:00;;;;;;;21.25;16.50;;;3.90;99.90;;;;;;5072822;28;20557;-70
2023/01/24 00:39:26;;;;;;;20.30;15.93;;;3.90;99.90;;;;;;5072639;28;20047;-70
2023/01/24 00:41:51;;;;;;;25.15;18.52;;;3.90;99.90;;;;;;5072665;28;20063;-70
2023/01/24 00:44:17;;;;;;;22.40;17.00;;;3.90;99.90;;;;;;5072868;28;20049;-70
2023/01/24 00:46:42;;;;;;;25.05;18.05;;;3.90;99.90;;;;;;5072575;28;20048;-70
2023/01/24 00:49:08;;;;;;;27.92;18.20;;;3.90;99.90;;;;;;5072658;28;20036;-70
2023/01/24 00:51:34;;;;;;;21.05;16.88;;;3.90;99.90;;;;;;5072077;28;20589;-70
2023/01/24 00:54:00;;;;;;;25.27;17.33;;;3.80;99.90;;;;;;5072430;28;20567;-70
2023/01/24 00:56:26;;;;;;;25.60;17.38;;;3.90;99.90;;;;;;5072316;28;20040;-70
2023/01/24 00:58:51;;;;;;;23.95;17.83;;;3.90;99.90;;;;;;5072301;28;20044;-70
2023/01/24 01:01:17;;;;;;;24.75;17.58;;;3.90;99.90;;;;;;5073432;28;20039;-70
2023/01/24 01:03:43;;;;;;;21.10;16.20;;;3.80;99.90;;;;;;5072282;28;20032;-70
2023/01/24 01:06:14;;;;;;;21.63;17.50;;;3.90;99.90;;;;;;5072249;28;20044;-69
2023/01/24 01:08:40;;;;;;;24.15;17.80;;;3.90;99.90;;;;;;5072098;28;20055;-69
2023/01/24 01:11:06;;;;;;;23.55;17.73;;;3.90;99.90;;;;;;5072182;28;20037;-69
2023/01/24 01:13:32;;;;;;;25.52;18.50;;;3.80;99.90;;;;;;5072199;28;20066;-69
2023/01/24 01:16:11;;;;;;;24.63;18.02;;;3.90;99.90;;;;;;5073593;28;20040;-69
2023/01/24 01:18:37;;;;;;;23.98;17.73;;;3.90;99.90;;;;;;5073360;28;20052;-70
2023/01/24 01:21:04;;;;;;;24.23;18.02;;;3.90;99.90;;;;;;5055641;28;20052;-70
2023/01/24 01:23:30;;;;;;;24.58;18.63;;;3.80;99.90;;;;;;5072038;28;20162;-70
2023/01/24 01:26:05;;;;;;;28.33;19.85;;;3.80;99.90;;;;;;5072010;28;20123;-70
2023/01/24 01:28:31;;;;;;;23.00;17.67;;;3.90;99.90;;;;;;5072036;28;20072;-70
2023/01/24 01:30:57;;;;;;;26.70;19.00;;;3.90;99.90;;;;;;5071843;28;20081;-70
2023/01/24 01:33:23;;;;;;;25.83;18.67;;;3.90;99.90;;;;;;5071854;28;20051;-70
2023/01/24 01:35:49;;;;;;;23.48;18.33;;;3.80;99.90;;;;;;5071798;28;20040;-70
2023/01/24 01:38:15;;;;;;;24.30;17.83;;;3.80;99.90;;;;;;5071815;28;20051;-70
2023/01/24 01:40:42;;;;;;;28.77;19.25;;;3.90;99.90;;;;;;5071789;28;20067;-70
2023/01/24 01:43:14;;;;;;;28.80;20.00;;;3.80;99.90;;;;;;5073313;28;20048;-70
2023/01/24 01:45:44;;;;;;;25.33;19.17;;;3.90;99.90;;;;;;5072077;28;20056;-70
2023/01/24 01:48:18;;;;;;;24.42;18.85;;;3.80;99.90;;;;;;5072066;28;20052;-70
2023/01/24 01:50:53;;;;;;;24.73;18.30;;;3.80;99.90;;;;;;5071562;28;20057;-70
2023/01/24 01:53:20;;;;;;;25.35;18.63;;;3.80;99.90;;;;;;5071792;28;20036;-70
2023/01/24 01:55:58;;;;;;;27.23;19.40;;;3.90;99.90;;;;;;5071785;28;20059;-70
2023/01/24 01:58:24;;;;;;;27.30;19.65;;;3.90;99.90;;;;;;5071726;28;20048;-70
2023/01/24 02:00:50;;;;;;;23.25;17.00;;;3.80;99.90;;;;;;5071568;28;20047;-70
2023/01/24 02:03:40;;;;;;;26.55;19.77;;;3.90;99.90;;;;;;5073782;28;20033;-70
2023/01/24 02:06:17;;;;;;;27.00;19.10;;;3.90;99.90;;;;;;5075995;28;20056;-70
2023/01/24 02:08:44;;;;;;;23.20;18.05;;;3.90;99.90;;;;;;5075652;28;20044;-70
2023/01/24 02:16:02;;;;;;;22.20;17.52;;;3.80;99.90;;;;;;5075571;28;20493;-69
2023/01/24 02:16:41;;;;;;;24.23;18.83;;;3.80;99.90;;;;;;5075514;28;20044;-69
2023/01/24 02:19:15;;;;;;;25.75;19.00;;;3.80;99.90;;;;;;5075445;28;20394;-69
2023/01/24 02:21:41;;;;;;;24.75;18.92;;;3.80;99.90;;;;;;5075451;28;20516;-69
2023/01/24 02:24:24;;;;;;;22.40;17.75;;;3.80;99.90;;;;;;5075616;28;20048;-69
2023/01/24 02:26:49;;;;;;;23.92;17.75;;;3.80;99.90;;;;;;5075329;28;20048;-69
2023/01/24 02:29:16;;;;;;;25.90;18.75;;;3.80;99.90;;;;;;5058545;28;20112;-70
2023/01/24 02:31:59;;;;;;;27.35;19.52;;;3.90;99.90;;;;;;5075221;28;20043;-70
2023/01/24 02:34:26;;;;;;;26.02;19.00;;;3.80;99.90;;;;;;5075180;28;20036;-70
2023/01/24 02:36:56;;;;;;;29.20;20.08;;;3.80;99.90;;;;;;5075104;28;20036;-70
2023/01/24 02:39:29;;;;;;;26.63;18.92;;;3.80;99.90;;;;;;5074980;28;20048;-70
2023/01/24 02:41:58;;;;;;;;;;;3.80;99.90;;;;;;5075697;28;20115;-70
2023/01/24 02:44:44;;;;;;;22.75;17.40;;;3.70;99.90;;;;;;5074934;28;19970;-70
2023/01/24 02:47:10;;;;;;;26.88;17.23;;;3.70;99.90;;;;;;5074908;28;20044;-70
2023/01/24 02:49:35;;;;;;;23.13;17.58;;;3.80;99.90;;;;;;5074821;28;20075;-70
2023/01/24 02:54:45;;;;;;;21.48;16.40;;;3.80;99.90;;;;;;5074732;28;20501;-70
2023/01/24 02:59:54;;;;;;;19.40;15.27;;;3.90;99.90;;;;;;5074640;28;20049;-70
2023/01/24 03:02:20;;;;;;;23.02;15.43;;;3.80;99.90;;;;;;5074866;28;20040;-70
2023/01/24 03:04:45;;;;;;;22.38;16.17;;;3.90;99.90;;;;;;5074557;28;20481;-70
2023/01/24 03:07:11;;;;;;;18.85;14.75;;;3.90;99.90;;;;;;5074530;28;20037;-70
2023/01/24 03:09:38;;;;;;;16.48;12.63;;;3.90;99.90;;;;;;5074625;28;20043;-70
2023/01/24 03:36:43;;;;;;;17.45;14.18;;;3.80;99.90;;;;;;5074013;28;20045;-70
2023/01/24 03:41:55;;;;;;;17.50;13.05;;;3.80;99.90;;;;;;5074227;28;20485;-70
2023/01/24 03:44:20;;;;;;;17.25;13.65;;;3.80;99.90;;;;;;5073891;28;20044;-70
2023/01/24 03:46:47;;;;;;;17.92;14.20;;;3.80;99.90;;;;;;5073803;28;20075;-70
2023/01/24 03:49:12;;;;;;;18.77;14.20;;;3.80;99.90;;;;;;5074227;28;20056;-70
2023/01/24 03:54:22;;;;;;;16.90;13.35;;;3.80;99.90;;;;;;5073740;28;20048;-70
2023/01/24 03:56:48;;;;;;;17.70;13.88;;;3.80;99.90;;;;;;5073546;28;20047;-70
2023/01/24 03:59:14;;;;;;;16.95;13.50;;;3.80;99.90;;;;;;5073481;28;20485;-70
2023/01/24 04:01:39;;;;;;;17.45;13.75;;;3.80;99.90;;;;;;5073777;28;20040;-70
2023/01/24 04:04:05;;;;;;;18.15;13.82;;;3.80;99.90;;;;;;5073458;28;20454;-70
2023/01/24 04:06:32;;;;;;;17.83;13.32;;;3.80;99.90;;;;;;5073391;28;20052;-70
2023/01/24 04:08:57;;;;;;;17.30;13.27;;;3.80;99.90;;;;;;5073282;28;20516;-70
2023/01/24 04:11:23;;;;;;;15.75;13.48;;;3.80;99.90;;;;;;5074844;28;20041;-70
2023/01/24 04:13:48;;;;;;;19.00;14.98;;;3.80;99.90;;;;;;5073332;28;20044;-70
2023/01/24 04:16:14;;;;;;;16.95;14.13;;;3.80;99.90;;;;;;5073193;28;20036;-70
2023/01/24 04:18:40;;;;;;;18.60;14.30;;;3.70;99.90;;;;;;5073129;28;20051;-70
2023/01/24 04:21:06;;;;;;;19.83;14.15;;;3.70;99.90;;;;;;5073445;28;20127;-70
2023/01/24 04:23:31;;;;;;;17.95;13.52;;;3.70;99.90;;;;;;5073095;28;20120;-70
2023/01/24 04:25:59;;;;;;;17.17;13.50;;;3.70;99.90;;;;;;5072110;28;20050;-70
2023/01/24 04:28:25;;;;;;;16.00;12.35;;;3.70;99.90;;;;;;5072923;28;20044;-70
2023/01/24 04:30:59;;;;;;;14.68;11.90;;;3.70;99.90;;;;;;5072853;28;20041;-70
2023/01/24 04:33:25;;;;;;;17.13;12.68;;;3.70;99.90;;;;;;5056456;28;20037;-70
2023/01/24 04:35:51;;;;;;;14.80;11.85;;;3.70;99.90;;;;;;5072754;28;20068;-70
2023/01/24 04:38:16;;;;;;;16.23;12.85;;;3.70;99.90;;;;;;5073619;28;20072;-70
2023/01/24 04:40:42;;;;;;;15.73;12.45;;;3.70;99.90;;;;;;5073658;28;20119;-70
2023/01/24 04:43:08;;;;;;;16.67;12.60;;;3.70;99.90;;;;;;5072686;28;20387;-70
2023/01/24 04:45:38;;;;;;;18.27;13.15;;;3.70;99.90;;;;;;5072610;28;20045;-70
2023/01/24 04:48:04;;;;;;;16.10;13.05;;;3.70;99.90;;;;;;5072592;28;20127;-70
2023/01/24 04:50:29;;;;;;;16.13;12.98;;;3.70;99.90;;;;;;5072610;28;20139;-70
2023/01/24 04:52:55;;;;;;;16.92;13.57;;;3.60;99.90;;;;;;5072493;28;20456;-70
2023/01/24 04:55:20;;;;;;;17.27;13.05;;;3.60;99.90;;;;;;5072375;28;20036;-70
2023/01/24 04:57:46;;;;;;;15.80;12.18;;;3.60;99.90;;;;;;5072647;28;20055;-70
2023/01/24 05:00:12;;;;;;;17.45;12.80;;;3.60;99.90;;;;;;5072563;28;20040;-70
2023/01/24 05:02:37;;;;;;;16.48;12.60;;;3.60;99.90;;;;;;5072315;28;20085;-70
2023/01/24 05:05:05;;;;;;;16.33;12.32;;;3.70;99.90;;;;;;5072307;28;20044;-70
2023/01/24 05:07:30;;;;;;;14.60;11.52;;;3.60;99.90;;;;;;5072200;28;20129;-70
2023/01/24 05:09:56;;;;;;;13.88;10.93;;;3.60;99.90;;;;;;5073601;28;20090;-70
2023/01/24 05:12:21;;;;;;;15.45;11.88;;;3.60;99.90;;;;;;5072236;28;20040;-70
2023/01/24 05:14:47;;;;;;;15.13;11.07;;;3.60;99.90;;;;;;5055440;28;20044;-70
2023/01/24 05:17:13;;;;;;;14.65;10.95;;;3.60;99.90;;;;;;5072107;28;20051;-70
2023/01/24 05:19:38;;;;;;;14.80;11.07;;;3.60;99.90;;;;;;5072522;28;20044;-70
2023/01/24 05:22:04;;;;;;;15.40;10.90;;;3.60;99.90;;;;;;5072089;28;20424;-70
2023/01/24 05:24:29;;;;;;;16.50;10.85;;;3.60;99.90;;;;;;5072331;28;20036;-70
2023/01/24 05:26:55;;;;;;;14.02;11.20;;;3.60;99.90;;;;;;5072054;28;20040;-70
2023/01/24 05:29:20;;;;;;;15.82;11.88;;;3.60;99.90;;;;;;5071937;28;20056;-70
2023/01/24 05:31:46;;;;;;;14.52;11.27;;;3.60;99.90;;;;;;5072226;28;20047;-70
2023/01/24 05:34:12;;;;;;;14.52;10.80;;;3.60;99.90;;;;;;5072209;28;20485;-70
2023/01/24 05:36:37;;;;;;;13.65;10.50;;;3.60;99.90;;;;;;5071604;28;20119;-69
2023/01/24 05:39:03;;;;;;;14.98;11.68;;;3.60;99.90;;;;;;5071758;28;20421;-69
2023/01/24 05:41:28;;;;;;;12.80;10.10;;;3.60;99.90;;;;;;5071865;28;20116;-70
2023/01/24 05:43:54;;;;;;;12.68;10.60;;;3.50;99.90;;;;;;5072102;28;20048;-70
2023/01/24 05:46:21;;;;;;;13.35;10.15;;;3.50;99.90;;;;;;5072044;28;20044;-70
2023/01/24 05:48:48;;;;;;;13.00;9.65;;;3.50;99.90;;;;;;5055016;28;20048;-70
2023/01/24 05:51:16;;;;;;;11.57;9.10;;;3.50;99.90;;;;;;5072845;28;20110;-70
2023/01/24 05:53:42;;;;;;;13.05;9.50;;;3.50;99.90;;;;;;5071951;28;20047;-70
2023/01/24 05:56:13;;;;;;;12.55;9.38;;;3.50;99.90;;;;;;5071614;28;20045;-70
2023/01/24 05:58:39;;;;;;;12.43;9.48;;;3.50;99.90;;;;;;5071603;28;20052;-70
2023/01/24 06:01:10;;;;;;;13.38;10.10;;;3.50;99.90;;;;;;5071668;28;20037;-70
2023/01/24 06:03:40;;;;;;;11.65;8.93;;;3.50;99.90;;;;;;5071624;28;20041;-70
2023/01/24 06:06:07;;;;;;;14.07;10.20;;;3.60;99.90;;;;;;5071599;28;20051;-70
2023/01/24 06:08:34;;;;;;;14.48;10.20;;;3.50;99.90;;;;;;5071587;28;20052;-70
2023/01/24 06:11:03;;;;;;;14.95;9.27;;;3.60;99.90;;;;;;5071495;28;20076;-70
2023/01/24 06:13:29;;;;;;;14.27;10.05;;;3.60;99.90;;;;;;5071521;28;20047;-70
2023/01/24 06:16:05;;;;;;;14.60;10.50;;;3.60;99.90;;;;;;5054744;28;20044;-70
2023/01/24 06:18:30;;;;;;;14.52;10.25;;;3.60;99.90;;;;;;5071545;28;20063;-70
2023/01/24 06:20:56;;;;;;;14.85;10.80;;;3.60;99.90;;;;;;5071673;28;20037;-70
2023/01/24 06:23:25;;;;;;;14.18;10.00;;;3.60;99.90;;;;;;5071699;28;20538;-70
2023/01/24 06:25:51;;;;;;;13.73;10.77;;;3.50;99.90;;;;;;5071417;28;20040;-70
2023/01/24 06:28:17;;;;;;;14.65;9.38;;;3.50;99.90;;;;;;5071365;28;20466;-70
2023/01/24 06:30:48;;;;;;;13.73;9.43;;;3.50;99.90;;;;;;5071342;28;20080;-70
2023/01/24 06:33:35;;;;;;;12.65;9.45;;;3.50;99.90;;;;;;5071416;28;20048;-70
2023/01/24 06:36:22;;;;;;;12.32;9.68;;;3.50;99.90;;;;;;5071448;28;20501;-70
2023/01/24 06:38:48;;;;;;;12.13;9.30;;;3.50;99.90;;;;;;5071298;28;20072;-70
2023/01/24 06:41:16;;;;;;;12.45;9.68;;;3.40;99.90;;;;;;5072568;28;20087;-70
2023/01/24 06:43:45;;;;;;;13.77;9.55;;;3.40;99.90;;;;;;5071454;28;20120;-70
2023/01/24 06:46:12;;;;;;;14.75;9.80;;;3.40;99.90;;;;;;5071168;28;20036;-70
2023/01/24 06:48:38;;;;;;;13.98;9.90;;;3.40;99.90;;;;;;5071858;28;20044;-70
2023/01/24 06:51:04;;;;;;;13.43;9.32;;;3.40;99.90;;;;;;5074721;28;20043;-70
2023/01/24 06:53:33;;;;;;;13.40;9.73;;;3.50;99.90;;;;;;5075070;28;20036;-70
2023/01/24 06:55:59;;;;;;;13.18;9.60;;;3.40;99.90;;;;;;5074810;28;20497;-70
2023/01/24 06:58:25;;;;;;;11.98;9.43;;;3.40;99.90;;;;;;5074976;28;20048;-70
2023/01/24 07:00:52;;;;;;;12.68;9.77;;;3.40;99.90;;;;;;5074612;28;20481;-70
2023/01/24 07:03:18;;;;;;;12.32;9.20;;;3.40;99.90;;;;;;5074903;28;20115;-70
2023/01/24 07:05:43;;;;;;;12.93;9.63;;;3.40;99.90;;;;;;5075431;28;20556;-70
2023/01/24 07:08:09;;;;;;;14.23;9.95;;;3.40;99.90;;;;;;5074572;28;20070;-70
2023/01/24 07:10:34;;;;;;;13.80;9.82;;;3.40;99.90;;;;;;5075726;28;20052;-70
2023/01/24 07:13:00;;;;;;;11.85;9.60;;;3.40;99.90;;;;;;5074485;28;20040;-70
2023/01/24 07:15:25;;;;;;;12.90;9.55;;;3.30;99.90;;;;;;5075581;28;20055;-70
2023/01/24 07:17:51;;;;;;;13.80;9.90;;;3.40;99.90;;;;;;5074367;28;20123;-70
2023/01/24 07:20:17;;;;;;;13.07;9.82;;;3.40;99.90;;;;;;5074498;28;20474;-70
2023/01/24 07:22:43;;;;;;;13.55;10.02;;;3.30;99.90;;;;;;5074237;28;20040;-70
2023/01/24 07:25:18;;;;;;;14.27;9.48;;;3.40;99.90;;;;;;5076042;28;20123;-70
2023/01/24 07:27:45;;;;;;;12.95;9.95;;;3.40;99.90;;;;;;5074215;28;20497;-70
2023/01/24 07:30:12;;;;;;;13.73;9.77;;;3.40;99.90;;;;;;5074064;28;20535;-70
2023/01/24 07:32:38;;;;;;;13.70;10.57;;;3.40;99.90;;;;;;5057385;28;20032;-70
2023/01/24 07:35:05;;;;;;;13.63;10.60;;;3.40;99.90;;;;;;5073977;28;20554;-70
2023/01/24 07:37:31;;;;;;;13.50;10.38;;;3.40;99.90;;;;;;5074228;28;20071;-70
2023/01/24 07:39:56;;;;;;;16.35;10.55;;;3.50;99.90;;;;;;5073871;28;20478;-70
2023/01/24 07:42:22;;;;;;;14.98;10.77;;;3.40;99.90;;;;;;5074162;28;20047;-70
2023/01/24 07:44:48;;;;;;;13.88;10.00;;;3.40;99.90;;;;;;5073881;28;20037;-70
2023/01/24 07:47:13;;;;;;;16.02;10.63;;;3.40;99.90;;;;;;5073792;28;20071;-70
2023/01/24 07:49:39;;;;;;;13.50;10.38;;;3.50;99.90;;;;;;5073892;28;20041;-70
2023/01/24 07:52:04;;;;;;;13.48;10.57;;;3.40;99.90;;;;;;5073774;28;20409;-70
2023/01/24 07:54:30;;;;;;;15.00;10.38;;;3.50;99.90;;;;;;5073684;28;20059;-70
2023/01/24 07:56:56;;;;;;;14.40;10.70;;;3.50;99.90;;;;;;5073618;28;20039;-70
2023/01/24 07:59:21;;;;;;;15.23;10.90;;;3.50;99.90;;;;;;5073429;28;20129;-70
2023/01/24 08:01:47;;;;;;;14.02;10.75;;;3.50;99.90;;;;;;5073624;28;20040;-70
2023/01/24 08:04:12;;;;;;;14.98;10.65;;;3.50;99.90;;;;;;5073772;28;20090;-70
2023/01/24 08:09:26;;;;;;;12.68;10.43;;;3.40;99.90;;;;;;5075023;28;20037;-69
2023/01/24 08:11:52;;;;;;;11.93;9.90;;;3.40;99.90;;;;;;5073357;28;20090;-69
2023/01/24 08:14:17;;;;;;;13.85;10.55;;;3.40;99.90;;;;;;5073693;28;20037;-69
2023/01/24 08:16:43;;;;;;;13.27;10.38;;;3.40;99.90;;;;;;5073219;28;20040;-70
2023/01/24 08:19:08;;;;;;;13.07;10.23;;;3.40;99.90;;;;;;5073193;28;20063;-70
2023/01/24 08:21:34;;;;;;;13.73;10.07;;;3.40;99.90;;;;;;5073203;28;20036;-70
2023/01/24 08:23:59;;;;;;;15.55;10.98;;;3.40;99.90;;;;;;5073165;28;20048;-70
2023/01/24 08:26:25;;;;;;;14.00;10.63;;;3.40;99.90;;;;;;5073043;28;20044;-70
2023/01/24 08:28:51;;;;;;;14.82;11.38;;;3.40;99.90;;;;;;5073240;28;20060;-70
2023/01/24 08:31:16;;;;;;;15.93;10.88;;;3.40;99.90;;;;;;5072972;28;20394;-70
2023/01/24 08:33:42;;;;;;;13.93;10.20;;;3.40;99.90;;;;;;5074162;28;20045;-70
2023/01/24 08:36:07;;;;;;;15.52;10.50;;;3.40;99.90;;;;;;5072799;28;20071;-70
2023/01/24 08:38:33;;;;;;;16.13;10.75;;;3.40;99.90;;;;;;5074092;28;20043;-70
2023/01/24 08:41:02;;;;;;;13.38;10.07;;;3.30;99.90;;;;;;5072723;28;20037;-70
2023/01/24 08:43:28;;;;;;;15.05;10.85;;;3.40;99.90;;;;;;5073031;28;20044;-70
2023/01/24 08:45:55;;;;;;;14.35;10.63;;;3.30;99.90;;;;;;5072986;28;20151;-70
2023/01/24 08:48:20;;;;;;;15.25;10.40;;;3.30;99.90;;;;;;5072698;28;20127;-70
2023/01/24 08:50:46;;;;;;;13.57;10.23;;;3.30;99.90;;;;;;5073657;28;20119;-70
2023/01/24 08:53:12;;;;;;;15.07;10.73;;;3.30;99.90;;;;;;5072587;28;20490;-70
2023/01/24 08:55:37;;;;;;;13.55;10.55;;;3.30;99.90;;;;;;5072697;28;20037;-70
2023/01/24 08:58:04;;;;;;;15.75;10.75;;;3.30;99.90;;;;;;5072820;28;20045;-70
2023/01/24 09:00:31;;;;;;;13.57;10.13;;;3.30;99.90;;;;;;5072350;28;20124;-70
2023/01/24 09:03:00;;;;;;;15.00;9.95;;;3.30;99.90;;;;;;5072398;28;20040;-70
2023/01/24 09:05:29;;;;;;;14.85;10.32;;;3.30;99.90;;;;;;5072363;28;20462;-70
2023/01/24 09:07:55;;;;;;;15.85;10.95;;;3.30;99.90;;;;;;5072343;28;20051;-70
2023/01/24 09:10:20;;;;;;;13.07;10.30;;;3.40;99.90;;;;;;5072219;28;20048;-70
2023/01/24 09:12:46;;;;;;;13.57;10.77;;;3.30;99.90;;;;;;5072005;28;20102;-70
2023/01/24 09:15:11;;;;;;;14.65;10.70;;;3.40;99.90;;;;;;5072394;28;20491;-70
2023/01/24 09:17:39;;;;;;;14.98;11.35;;;3.30;99.90;;;;;;5072195;28;20390;-70
2023/01/24 09:20:06;;;;;;;15.95;11.25;;;3.30;99.90;;;;;;5072101;28;20116;-70
2023/01/24 09:22:32;;;;;;;14.02;10.02;;;3.40;99.90;;;;;;5072063;28;20463;-70
2023/01/24 09:24:57;;;;;;;15.95;10.65;;;3.30;99.90;;;;;;5072094;28;20040;-70
2023/01/24 09:27:23;;;;;;;14.35;10.82;;;3.40;99.90;;;;;;5072309;28;20036;-70
2023/01/24 09:29:48;;;;;;;15.70;10.45;;;3.40;99.90;;;;;;5071950;28;20551;-70
2023/01/24 09:32:16;;;;;;;14.40;10.63;;;3.30;99.90;;;;;;5071957;28;20039;-70
2023/01/24 09:34:46;;;;;;;14.65;10.20;;;3.40;99.90;;;;;;5072250;28;20086;-70
2023/01/24 09:37:21;;;;;;;14.07;10.48;;;3.30;99.90;;;;;;5071849;28;20053;-70
2023/01/24 09:39:47;;;;;;;13.75;10.60;;;3.30;99.90;;;;;;5071872;28;20413;-70
2023/01/24 09:42:24;;;;;;;14.18;10.98;;;3.30;99.90;;;;;;5072140;28;20044;-70
2023/01/24 09:45:09;;;;;;;15.30;10.23;;;3.30;99.90;;;;;;5072201;28;20033;-70
2023/01/24 09:47:42;;;;;;;13.15;9.98;;;3.30;99.90;;;;;;5072141;28;20080;-70
2023/01/24 09:50:17;;;;;;;14.57;10.88;;;3.30;99.90;;;;;;5071593;28;20040;-69
2023/01/24 09:52:45;;;;;;;14.73;10.60;;;3.30;99.90;;;;;;5072055;28;20076;-70
2023/01/24 09:55:27;;;;;;;12.20;9.95;;;3.30;99.90;;;;;;5071672;28;20048;-70
2023/01/24 09:57:58;;;;;;;13.23;10.13;;;3.40;99.90;;;;;;5071706;28;20508;-70
2023/01/24 10:00:29;;;;;;;15.05;10.20;;;3.30;99.90;;;;;;5071920;28;20055;-70
2023/01/24 10:02:57;;;;;;;13.60;10.25;;;3.30;99.90;;;;;;5071982;28;20098;-70
2023/01/24 10:05:32;;;;;;;13.05;10.18;;;3.40;99.90;;;;;;5071651;28;20045;-70
2023/01/24 10:08:12;;;;;;;13.68;10.27;;;3.30;99.90;;;;;;5071712;28;20047;-70
2023/01/24 10:10:49;;;;;;;14.07;9.98;;;3.40;99.90;;;;;;5071586;28;20052;-70
2023/01/24 10:13:24;;;;;;;13.38;9.85;;;3.40;99.90;;;;;;5072843;28;20041;-70
2023/01/24 10:16:08;;;;;;;15.35;10.95;;;3.40;99.90;;;;;;5071507;28;20106;-70
2023/01/24 10:18:57;;;;;;;13.98;10.27;;;3.50;99.90;;;;;;5071539;28;20052;-70
2023/01/24 10:21:55;;;;;;;14.38;10.70;;;3.50;99.90;;;;;;5071801;28;20108;-70
2023/01/24 10:24:26;;;;;;;14.15;10.13;;;3.50;99.90;;;;;;5072848;28;20044;-70
2023/01/24 10:26:52;;;;;;;12.75;10.07;;;3.50;99.90;;;;;;5075423;28;20086;-70
2023/01/24 10:29:35;;;;;;;13.60;10.40;;;3.50;99.90;;;;;;5075641;28;20047;-71
2023/01/24 10:32:05;;;;;;;;;;;3.50;99.90;;;;;;5059101;28;20048;-71
2023/01/24 10:34:41;;;;;;;16.90;10.73;;;3.40;99.90;;;;;;5075212;28;19920;-71
2023/01/24 10:37:10;;;;;;;13.70;10.82;;;3.50;99.90;;;;;;5075138;28;20048;-71
2023/01/24 10:39:36;;;;;;;13.55;10.00;;;3.40;99.90;;;;;;5075057;28;20037;-71
2023/01/24 10:42:16;;;;;;;15.73;10.27;;;3.50;99.90;;;;;;5075083;28;20044;-71
2023/01/24 10:44:42;;;;;;;14.00;9.50;;;3.60;99.90;;;;;;5074992;28;20405;-71
2023/01/24 10:47:34;;;;;;;13.68;9.93;;;3.60;99.90;;;;;;5075283;28;20097;-70
2023/01/24 10:50:03;;;;;;;12.23;9.85;;;3.60;99.90;;;;;;5074439;28;20048;-70
2023/01/24 10:52:29;;;;;;;13.48;9.73;;;3.70;99.90;;;;;;5074942;28;20041;-70
2023/01/24 10:54:57;;;;;;;13.68;10.73;;;3.60;99.90;;;;;;5074917;28;20044;-71
2023/01/24 10:57:36;;;;;;;13.55;10.85;;;3.70;99.90;;;;;;5074752;28;20443;-71
2023/01/24 11:00:33;;;;;;;11.82;9.68;;;3.70;99.90;;;;;;5074714;28;20032;-71
2023/01/24 11:03:04;;;;;;;12.90;10.13;;;3.80;99.90;;;;;;5075014;28;20067;-70
2023/01/24 11:05:45;;;;;;;12.45;10.00;;;3.70;99.90;;;;;;5075176;28;20036;-70
2023/01/24 11:08:31;;;;;;;13.70;9.82;;;3.70;99.90;;;;;;5074670;28;20060;-70
2023/01/24 11:11:00;;;;;;;13.18;10.25;;;3.80;99.90;;;;;;5074557;28;20055;-70
2023/01/24 11:13:39;;;;;;;12.73;10.43;;;3.80;99.90;;;;;;5074782;28;20048;-70
2023/01/24 11:16:31;;;;;;;16.25;10.90;;;3.80;99.90;;;;;;5074539;28;20044;-70
2023/01/24 11:19:05;;;;;;;13.43;10.38;;;3.80;99.90;;;;;;5066828;28;20056;-70
2023/01/24 11:21:31;;;;;;;14.43;10.57;;;3.80;99.90;;;;;;5074522;28;20048;-70
2023/01/24 11:24:05;;;;;;;15.23;11.77;;;3.80;99.90;;;;;;5074336;28;20044;-70
2023/01/24 11:26:36;;;;;;;14.48;10.80;;;3.80;99.90;;;;;;5074595;28;20084;-70
2023/01/24 11:29:05;;;;;;;14.98;10.82;;;3.80;99.90;;;;;;5074236;28;20036;-70
2023/01/24 11:32:27;;;;;;;13.02;10.55;;;3.70;99.90;;;;;;5074453;28;20052;-70
2023/01/24 11:35:11;;;;;;;12.38;10.18;;;3.80;99.90;;;;;;5050553;28;20101;-71
2023/01/24 11:38:16;;;;;;;13.25;9.80;;;3.70;99.90;;;;;;5074146;28;20037;-70
2023/01/24 11:40:44;;;;;;;13.65;10.15;;;3.70;99.90;;;;;;5074021;28;20494;-71
2023/01/24 11:43:35;;;;;;;13.57;10.60;;;3.70;99.90;;;;;;5074251;28;20036;-70
2023/01/24 11:46:27;;;;;;;16.50;11.00;;;3.70;99.90;;;;;;5073945;28;20049;-70
2023/01/24 11:49:04;;;;;;;12.52;9.85;;;3.70;99.90;;;;;;5074082;28;20506;-72
2023/01/24 11:52:07;;;;;;;11.73;9.85;;;3.70;99.90;;;;;;5073660;28;20405;-71
2023/01/24 11:54:45;;;;;;;14.73;11.43;;;3.70;99.90;;;;;;5073722;28;20405;-71
2023/01/24 11:57:23;;;;;;;13.60;10.50;;;3.70;99.90;;;;;;5057041;28;20044;-71
2023/01/24 12:00:11;;;;;;;15.45;10.32;;;3.70;99.90;;;;;;5073907;28;20032;-71
2023/01/24 12:03:14;;;;;;;13.65;11.10;;;3.80;99.90;;;;;;5073648;28;20072;-71
2023/01/24 12:05:48;;;;;;;14.73;11.03;;;3.80;99.90;;;;;;5073826;28;20041;-71
2023/01/24 12:08:43;;;;;;;12.82;10.18;;;3.80;99.90;;;;;;5073795;28;20044;-71
2023/01/24 12:11:34;;;;;;;14.48;11.05;;;3.80;99.90;;;;;;5073402;28;20476;-71
2023/01/24 12:14:35;;;;;;;13.95;10.43;;;3.80;99.90;;;;;;5073414;28;20051;-70
2023/01/24 12:17:32;;;;;;;15.00;11.07;;;3.80;99.90;;;;;;5073248;28;20454;-70
2023/01/24 12:20:28;;;;;;;14.10;10.98;;;3.80;99.90;;;;;;5073219;28;20040;-70
2023/01/24 12:22:57;;;;;;;13.77;10.60;;;3.80;99.90;;;;;;5073197;28;20044;-70
2023/01/24 12:25:30;;;;;;;13.77;10.40;;;3.80;99.90;;;;;;5073373;28;20110;-71
2023/01/24 12:27:58;;;;;;;13.68;10.98;;;3.80;99.90;;;;;;5073132;28;20040;-71
2023/01/24 12:30:48;;;;;;;14.27;11.55;;;3.90;99.90;;;;;;5072925;28;20048;-71
2023/01/24 12:33:40;;;;;;;13.82;11.18;;;3.90;99.90;;;;;;5073228;28;20520;-71
2023/01/24 12:36:11;;;;;;;14.23;10.93;;;3.90;99.90;;;;;;5072864;28;20036;-71
2023/01/24 12:38:41;;;;;;;13.43;10.52;;;3.90;99.90;;;;;;5072931;28;20044;-71
2023/01/24 12:41:31;;;;;;;15.25;11.63;;;3.90;99.90;;;;;;5073137;28;20489;-71
2023/01/24 12:44:22;;;;;;;13.77;11.77;;;3.90;99.90;;;;;;5072846;28;20041;-71
2023/01/24 12:46:55;;;;;;;13.85;10.88;;;3.80;99.90;;;;;;5055540;28;20447;-71
2023/01/24 12:49:36;;;;;;;15.27;11.88;;;3.80;99.90;;;;;;5072554;28;20090;-71
2023/01/24 12:52:22;;;;;;;13.73;10.75;;;3.80;99.90;;;;;;5072920;28;20044;-71
2023/01/24 12:55:04;;;;;;;12.98;10.52;;;3.80;99.90;;;;;;5072599;28;20041;-70
2023/01/24 12:57:41;;;;;;;14.25;11.00;;;3.80;99.90;;;;;;5072570;28;20041;-70
2023/01/24 13:00:18;;;;;;;14.00;11.43;;;3.70;99.90;;;;;;5072679;28;20566;-70
2023/01/24 13:03:18;;;;;;;12.23;10.20;;;3.70;99.90;;;;;;5072363;28;20127;-70
2023/01/24 13:06:01;;;;;;;16.88;11.30;;;3.70;99.90;;;;;;5072360;28;20046;-71
2023/01/24 13:08:47;;;;;;;;;;;3.70;99.90;;;;;;5072885;28;20555;-70
2023/01/24 13:11:29;;;;;;;15.85;11.68;;;3.60;99.90;;;;;;5072421;28;19916;-70
2023/01/24 13:14:09;;;;;;;14.23;11.80;;;3.60;99.90;;;;;;5072424;28;20041;-70
2023/01/24 13:16:34;;;;;;;15.63;11.02;;;3.60;99.90;;;;;;5072166;28;20066;-70
2023/01/24 13:19:35;;;;;;;17.27;12.00;;;3.60;99.90;;;;;;5072133;28;20045;-70
2023/01/24 13:22:28;;;;;;;13.48;10.70;;;3.70;99.90;;;;;;5072139;28;20113;-70
2023/01/24 13:25:31;;;;;;;15.35;11.52;;;3.60;99.90;;;;;;5072418;28;20041;-70
2023/01/24 13:28:06;;;;;;;15.70;11.75;;;3.60;99.90;;;;;;5072053;28;20108;-71
2023/01/24 13:30:41;;;;;;;15.02;11.77;;;3.60;99.90;;;;;;5072406;28;20040;-71
2023/01/24 13:33:15;;;;;;;13.38;11.15;;;3.60;99.90;;;;;;5072172;28;20047;-70
2023/01/24 13:35:52;;;;;;;16.35;12.25;;;3.60;99.90;;;;;;5072061;28;20049;-71
2023/01/24 13:38:29;;;;;;;15.50;11.73;;;3.60;99.90;;;;;;5072267;28;20049;-71